METAR AND TAF INFORMATION
METAR FOR LEIB
ADDS - METARS form results

(1046 UTC 08 February 2023)
Data provider http://aviationweather.gov/metar/data/
 
METAR text: LEIB 081037Z 07015G26KT 040V100 3000 +SHRA FEW007 SCT012 FEW030TCU 11/10 Q1024 NOSIG
Conditions at: LEIB (IBIZA/ES CODOLA , ES) observed 1037 UTC 08 February 2023
Temperature: 11.0°C (52°F)
Dewpoint: 10.0°C (50°F) [RH = 94%]
Pressure (altimeter): 30.24 inches Hg (1024.0 mb)
Winds: from the ENE (70 degrees) at 17 MPH (15 knots; 7.7 m/s)
gusting to 30 MPH (26 knots; 13.4 m/s)
Visibility: 1.86 miles (2.99 km)
Ceiling: at least 12,000 feet AGL
Clouds: few clouds at 700 feet AGL
scattered clouds at 1200 feet AGL
few clouds at 3000 feet AGL
Weather: +SHRA  (heavy rain showers)

METAR text: LEIB 081030Z 06014KT 030V090 6000 2500N SHRA FEW007 SCT012 FEW030TCU 12/10 Q1024 NOSIG
Conditions at: LEIB (IBIZA/ES CODOLA , ES) observed 1030 UTC 08 February 2023
Temperature: 12.0°C (54°F)
Dewpoint: 10.0°C (50°F) [RH = 88%]
Pressure (altimeter): 30.24 inches Hg (1024.0 mb)
Winds: from the ENE (60 degrees) at 16 MPH (14 knots; 7.2 m/s)
Visibility: 4 miles ( 6 km)
Ceiling: at least 12,000 feet AGL
Clouds: few clouds at 700 feet AGL
scattered clouds at 1200 feet AGL
few clouds at 3000 feet AGL
Weather: SHRA  (rain showers)

METAR text: LEIB 081000Z 06015G25KT 030V100 9999 -RA FEW012 SCT015 FEW030TCU 12/09 Q1023 NOSIG
Conditions at: LEIB (IBIZA/ES CODOLA , ES) observed 1000 UTC 08 February 2023
Temperature: 12.0°C (54°F)
Dewpoint: 9.0°C (48°F) [RH = 82%]
Pressure (altimeter): 30.21 inches Hg (1023.0 mb)
Winds: from the ENE (60 degrees) at 17 MPH (15 knots; 7.7 m/s)
gusting to 29 MPH (25 knots; 12.9 m/s)
Visibility: 6 or more miles (10+ km)
Ceiling: at least 12,000 feet AGL
Clouds: few clouds at 1200 feet AGL
scattered clouds at 1500 feet AGL
few clouds at 3000 feet AGL
Weather: -RA  (light rain)

Forecast for: LEIB (IBIZA/ES CODOLA , ES)
Text: TAF LEIB 080800Z 0809/0909 09013KT 9999 FEW015 TX12/0812Z TN09/0906Z
Forecast period: 0900 to 1700 UTC 08 February 2023
Forecast type: FROM: standard forecast or significant change
Winds: from the E (90 degrees) at 15 MPH (13 knots; 6.7 m/s)
Visibility: 6 or more miles (10+ km)
Ceiling: at least 12,000 feet AGL
Clouds: few clouds at 1500 feet AGL
Weather: no significant weather forecast for this period
Text: PROB40
Forecast period: 0900 to 1200 UTC 08 February 2023
Forecast type: TEMPORARY: The following changes expected for less than half the time period
Visibility: 2.49 miles (4.01 km)
Ceiling: 1000 feet AGL
Clouds: broken clouds at 1000 feet AGL
few clouds at 2500 feet AGL
Weather: SHRA  (rain showers)
Text: TEMPO 0809/0812 4000 SHRA BKN010 FEW025TCU
Forecast period: 0900 to 1400 UTC 08 February 2023
Forecast type: TEMPORARY: The following changes expected for less than half the time period
Winds: from the E (80 degrees) at 20 MPH (17 knots; 8.7 m/s)
gusting to 37 MPH (32 knots; 16.5 m/s)
Visibility: missing
Ceiling: unknown
Clouds: missing
Weather: no significant weather forecast for this period
Text: PROB30
Forecast period: 1700 UTC 08 February 2023 to 0900 UTC 09 February 2023
Forecast type: BECOMING: Conditions expected to become as follows by 1900 UTC 08 February 2023
Winds: from the NNE (20 degrees) at 6 MPH (5 knots; 2.6 m/s)
Visibility: 6 or more miles (10+ km)
Ceiling: at least 12,000 feet AGL
Clouds: few clouds at 1500 feet AGL
Weather: no significant weather forecast for this period

 AIRPORT MAP

 RUNWAY INFORMATION
Runway 06 Runway length 9186 ft Runway width 148 ft
Runway elevation 13 ft Runway displaced threshold 0 ft Runway heading 62
Runway 24 Runway length 9186 ft Runway width 148 ft
Runway elevation 16 ft Runway displaced threshold 0 ft Runway heading 242

 AIRPORT FREQUENCIES
Type APP Name PALMA APP Frequency 118.125 MHZ
Type APP Name APP Frequency 119.8 MHZ
Type ATIS Name ATIS Frequency 117.8 MHZ
Type GND Name GND Frequency 121.8 MHZ
Type TWR Name TWR Frequency 118.5 MHZ

 AIRPORT NEAR NAVIGATION AIDS
Type VOR-DME Name Ibiza Frequency 117800 KHZ
Type NDB Name Ibiza Frequency 394 KHZ



Powered by Virtual Airlines Manager [v2.6.2]